createdAt,value
2022-12-18T00:00:14.407Z,-2.87
2022-12-18T00:05:17.536Z,-2.89
2022-12-18T00:10:20.585Z,-2.92
2022-12-18T00:15:25.053Z,-3.02
2022-12-18T00:20:28.116Z,-3.06
2022-12-18T00:25:31.348Z,-3.07
2022-12-18T00:30:38.170Z,-2.99
2022-12-18T00:35:41.353Z,-3.01
2022-12-18T00:40:44.727Z,-3.12
2022-12-18T00:45:50.784Z,-3.20
2022-12-18T00:50:53.905Z,-3.25
2022-12-18T00:55:56.979Z,-3.26
2022-12-18T01:01:01.828Z,-3.25
2022-12-18T01:06:08.795Z,-3.32
2022-12-18T01:11:13.947Z,-3.38
2022-12-18T01:16:19.955Z,-3.36
2022-12-18T01:21:25.133Z,-3.31
2022-12-18T01:26:30.994Z,-3.44
2022-12-18T01:31:36.037Z,-3.42
2022-12-18T01:36:41.760Z,-3.47
2022-12-18T01:42:01.735Z,-3.54
2022-12-18T01:47:06.212Z,-3.54
2022-12-18T01:52:09.409Z,-3.73
2022-12-18T01:57:12.565Z,-3.83
2022-12-18T02:02:17.917Z,-3.95
2022-12-18T02:07:30.804Z,-4.14
2022-12-18T02:12:44.441Z,-4.27
2022-12-18T02:17:53.913Z,-4.35
2022-12-18T02:23:16.568Z,-4.39
2022-12-18T02:28:25.342Z,-4.60
2022-12-18T02:33:32.207Z,-4.57
2022-12-18T02:38:36.940Z,-4.77
2022-12-18T02:43:55.671Z,-4.74
2022-12-18T02:49:08.058Z,-4.84
2022-12-18T02:54:19.976Z,-4.91
2022-12-18T02:59:33.035Z,-4.95
2022-12-18T03:04:41.937Z,-5.17
2022-12-18T03:09:52.271Z,-5.23
2022-12-18T03:15:04.027Z,-5.21
2022-12-18T03:20:12.219Z,-5.31
2022-12-18T03:25:19.184Z,-5.35
2022-12-18T03:30:24.497Z,-5.45
2022-12-18T03:35:32.748Z,-5.51
2022-12-18T03:40:46.922Z,-5.54
2022-12-18T03:45:56.697Z,-5.58
2022-12-18T03:51:07.168Z,-5.59
2022-12-18T03:56:12.982Z,-5.55
2022-12-18T04:01:22.086Z,-5.62
2022-12-18T04:06:25.718Z,-5.67
2022-12-18T04:11:29.028Z,-5.75
2022-12-18T04:16:33.500Z,-5.79
2022-12-18T04:21:39.527Z,-5.89
2022-12-18T04:26:42.997Z,-5.82
2022-12-18T04:31:54.134Z,-5.81
2022-12-18T04:36:57.803Z,-5.85
2022-12-18T04:42:02.167Z,-5.85
2022-12-18T04:47:08.651Z,-5.88
2022-12-18T04:52:11.713Z,-5.89
2022-12-18T04:57:14.842Z,-5.91
2022-12-18T05:02:19.342Z,-5.91
2022-12-18T05:07:22.473Z,-5.98
2022-12-18T05:12:26.887Z,-6.06
2022-12-18T05:17:31.241Z,-6.14
2022-12-18T05:22:34.267Z,-6.13
2022-12-18T05:27:37.403Z,-6.18
2022-12-18T05:32:42.436Z,-6.20
2022-12-18T05:37:45.482Z,-6.18
2022-12-18T05:42:48.405Z,-6.21
2022-12-18T05:47:52.770Z,-6.31
2022-12-18T05:52:56.099Z,-6.36
2022-12-18T05:57:59.287Z,-6.25
2022-12-18T06:03:04.418Z,-6.32
2022-12-18T06:08:09.012Z,-6.27
2022-12-18T06:13:12.018Z,-6.29
2022-12-18T06:18:16.571Z,-6.29
2022-12-18T06:23:19.671Z,-6.30
2022-12-18T06:28:22.956Z,-6.41
2022-12-18T06:33:29.034Z,-6.40
2022-12-18T06:38:32.984Z,-6.51
2022-12-18T06:43:36.152Z,-6.54
2022-12-18T06:48:40.791Z,-6.62
2022-12-18T06:53:43.882Z,-6.57
2022-12-18T06:58:47.007Z,-6.58
2022-12-18T07:03:54.665Z,-6.54
2022-12-18T07:08:57.876Z,-6.52
2022-12-18T07:14:00.896Z,-6.54
2022-12-18T07:19:05.782Z,-6.59
2022-12-18T07:24:09.527Z,-6.55
2022-12-18T07:29:12.459Z,-6.60
2022-12-18T07:34:26.312Z,-6.66
2022-12-18T07:39:45.205Z,-6.78
2022-12-18T07:44:48.557Z,-6.42
2022-12-18T07:49:53.077Z,-6.45
2022-12-18T07:54:56.703Z,-6.34
2022-12-18T08:00:00.385Z,-6.25
2022-12-18T08:05:05.310Z,-6.13
2022-12-18T08:10:10.776Z,-6.10
2022-12-18T08:15:13.786Z,-6.05
2022-12-18T08:20:19.383Z,-6.04
2022-12-18T08:25:22.524Z,-6.01
2022-12-18T08:30:25.604Z,-5.92
2022-12-18T08:35:35.866Z,-5.76
2022-12-18T08:40:40.282Z,-5.66
2022-12-18T08:45:43.618Z,-5.55
2022-12-18T08:50:57.781Z,-5.38
2022-12-18T08:56:01.198Z,-5.24
2022-12-18T09:01:05.049Z,-5.11
2022-12-18T09:06:10.301Z,-5.02
2022-12-18T09:11:16.429Z,-4.95
2022-12-18T09:16:20.682Z,-4.79
2022-12-18T09:21:25.121Z,-4.63
2022-12-18T09:26:29.079Z,-4.46
2022-12-18T09:31:32.275Z,-4.34
2022-12-18T09:36:36.900Z,-4.19
2022-12-18T09:41:48.409Z,-4.05
2022-12-18T09:46:57.885Z,-3.93
2022-12-18T09:52:07.278Z,-3.80
2022-12-18T09:57:21.215Z,-3.71
2022-12-18T10:02:27.637Z,-3.46
2022-12-18T10:07:42.236Z,-3.28
2022-12-18T10:12:59.528Z,-3.22
2022-12-18T10:18:21.700Z,-3.09
2022-12-18T10:23:30.992Z,-3.06
2022-12-18T10:28:40.150Z,-2.87
2022-12-18T10:33:43.462Z,-2.85
2022-12-18T10:38:47.897Z,-2.74
2022-12-18T10:44:10.882Z,-2.64
2022-12-18T10:49:28.886Z,-2.58
2022-12-18T10:54:35.769Z,-2.52
2022-12-18T10:59:53.141Z,-2.47
2022-12-18T11:04:56.489Z,-2.33
2022-12-18T11:10:04.077Z,-2.23
2022-12-18T11:15:09.665Z,-2.16
2022-12-18T11:20:25.994Z,-2.08
2022-12-18T11:25:32.905Z,-1.96
2022-12-18T11:30:38.590Z,-1.91
2022-12-18T11:35:49.518Z,-1.89
2022-12-18T11:41:01.129Z,-1.68
2022-12-18T11:46:11.522Z,-1.70
2022-12-18T11:51:28.318Z,-1.52
2022-12-18T11:56:37.275Z,-1.41
2022-12-18T12:01:51.004Z,-1.47
2022-12-18T12:07:04.810Z,-1.39
2022-12-18T12:12:25.798Z,-1.36
2022-12-18T12:17:38.876Z,-1.39
2022-12-18T12:22:53.202Z,-1.35
2022-12-18T12:28:15.741Z,-1.29
2022-12-18T12:33:35.523Z,-1.31
2022-12-18T12:38:49.777Z,-1.21
2022-12-18T12:43:59.852Z,-1.22
2022-12-18T12:49:10.787Z,-1.15
2022-12-18T12:54:19.984Z,-1.25
2022-12-18T12:59:32.104Z,-1.22
2022-12-18T13:04:42.390Z,-1.16
2022-12-18T13:10:17.199Z,-1.06
2022-12-18T13:15:26.015Z,-1.03
2022-12-18T13:20:38.244Z,-1.03
2022-12-18T13:25:41.434Z,-1.04
2022-12-18T13:30:52.605Z,-1.07
2022-12-18T13:36:04.844Z,-1.11
2022-12-18T13:41:25.209Z,-0.98
2022-12-18T13:46:32.396Z,-1.01
2022-12-18T13:51:37.441Z,-1.03
2022-12-18T13:56:46.237Z,-1.07
2022-12-18T14:01:55.332Z,-1.00
2022-12-18T14:07:04.112Z,-1.03
2022-12-18T14:12:26.562Z,-1.07
2022-12-18T14:17:33.648Z,-0.99
2022-12-18T14:22:37.908Z,-0.99
2022-12-18T14:27:45.638Z,-1.04
2022-12-18T14:33:06.987Z,-1.05
2022-12-18T14:38:24.946Z,-1.06
2022-12-18T14:43:29.725Z,-1.04
2022-12-18T14:48:50.420Z,-1.01
2022-12-18T14:53:57.872Z,-1.03
2022-12-18T14:59:02.480Z,-1.04
2022-12-18T15:04:25.249Z,-1.05
2022-12-18T15:09:30.941Z,-1.04
2022-12-18T15:14:41.480Z,-1.11
2022-12-18T15:19:48.022Z,-1.08
2022-12-18T15:24:51.649Z,-1.09
2022-12-18T15:30:24.823Z,-1.10
2022-12-18T15:35:29.794Z,-1.16
2022-12-18T15:40:36.328Z,-1.08
2022-12-18T15:45:39.572Z,-1.09
2022-12-18T15:50:43.980Z,-1.06
2022-12-18T15:56:05.418Z,-1.07
2022-12-18T16:01:14.141Z,-1.04
2022-12-18T16:06:20.508Z,-1.05
2022-12-18T16:11:39.805Z,-1.02
2022-12-18T16:16:43.063Z,-0.99
2022-12-18T16:21:49.418Z,-0.97
2022-12-18T16:26:54.079Z,-0.98
2022-12-18T16:32:16.117Z,-0.93
2022-12-18T16:37:20.676Z,-0.90
2022-12-18T16:42:30.382Z,-0.92
2022-12-18T16:47:33.723Z,-0.89
2022-12-18T16:52:41.310Z,-0.90
2022-12-18T16:57:47.592Z,-0.87
2022-12-18T17:02:50.896Z,-0.86
2022-12-18T17:07:55.885Z,-0.77
2022-12-18T17:13:00.088Z,-0.75
2022-12-18T17:18:03.676Z,-0.75
2022-12-18T17:23:21.319Z,-0.82
2022-12-18T17:28:26.408Z,-0.68
2022-12-18T17:33:32.989Z,-0.68
2022-12-18T17:38:42.295Z,-0.61
2022-12-18T17:43:54.681Z,-0.59
2022-12-18T17:48:58.512Z,-0.51
2022-12-18T17:54:03.058Z,-0.54
2022-12-18T17:59:07.090Z,-0.46
2022-12-18T18:04:10.409Z,-0.43
2022-12-18T18:09:16.801Z,-0.46
2022-12-18T18:14:21.662Z,-0.37
2022-12-18T18:19:26.381Z,-0.37
2022-12-18T18:24:31.012Z,-0.38
2022-12-18T18:29:34.607Z,-0.28
2022-12-18T18:34:41.925Z,-0.25
2022-12-18T18:39:46.490Z,-0.17
2022-12-18T18:44:52.512Z,-0.11
2022-12-18T18:49:56.852Z,-0.09
2022-12-18T18:55:13.394Z,-0.13
2022-12-18T19:00:18.547Z,-0.15
2022-12-18T19:05:22.986Z,-0.26
2022-12-18T19:10:27.742Z,-0.30
2022-12-18T19:15:34.447Z,-0.38
2022-12-18T19:20:38.021Z,-0.45
2022-12-18T19:26:10.337Z,-0.35
2022-12-18T19:31:24.824Z,-0.40
2022-12-18T19:36:31.186Z,-0.31
2022-12-18T19:41:35.697Z,-0.29
2022-12-18T19:46:41.799Z,-0.31
2022-12-18T19:51:45.562Z,-0.36
2022-12-18T19:56:55.918Z,-0.23
2022-12-18T20:02:05.075Z,-0.21
2022-12-18T20:07:08.871Z,-0.17
2022-12-18T20:12:13.418Z,-0.18
2022-12-18T20:17:16.629Z,-0.15
2022-12-18T20:22:20.201Z,-0.13
2022-12-18T20:27:24.940Z,-0.19
2022-12-18T20:32:31.488Z,-0.22
2022-12-18T20:37:39.320Z,-0.14
2022-12-18T20:42:47.505Z,-0.12
2022-12-18T20:47:50.667Z,-0.12
2022-12-18T20:52:53.805Z,-0.10
2022-12-18T20:57:59.246Z,-0.14
2022-12-18T21:03:02.549Z,-0.21
2022-12-18T21:08:06.407Z,-0.10
2022-12-18T21:13:12.328Z,-0.20
2022-12-18T21:18:16.978Z,-0.13
2022-12-18T21:23:20.027Z,-0.08
2022-12-18T21:28:24.578Z,-0.08
2022-12-18T21:33:27.793Z,-0.05
2022-12-18T21:38:33.257Z,-0.05
2022-12-18T21:43:57.042Z,-0.08
2022-12-18T21:49:00.460Z,-0.01
2022-12-18T21:54:04.666Z,0.00
2022-12-18T21:59:11.710Z,-0.01
2022-12-18T22:04:15.248Z,-0.01
2022-12-18T22:09:20.324Z,-0.02
2022-12-18T22:14:24.998Z,0.03
2022-12-18T22:19:28.248Z,0.01
2022-12-18T22:24:31.537Z,0.02
2022-12-18T22:29:53.217Z,0.00
2022-12-18T22:34:59.374Z,0.13
2022-12-18T22:40:08.709Z,0.17
2022-12-18T22:45:13.617Z,0.08
2022-12-18T22:50:16.903Z,0.23
2022-12-18T22:55:20.646Z,0.28
2022-12-18T23:00:25.107Z,0.29
2022-12-18T23:05:32.496Z,0.32
2022-12-18T23:10:38.829Z,0.31
2022-12-18T23:15:44.068Z,0.39
2022-12-18T23:20:47.467Z,0.36
2022-12-18T23:25:50.826Z,0.42
2022-12-18T23:30:55.626Z,0.38
2022-12-18T23:36:00.099Z,0.45
2022-12-18T23:41:08.172Z,0.51
2022-12-18T23:46:13.988Z,0.48
2022-12-18T23:51:18.221Z,0.54
2022-12-18T23:56:21.341Z,0.58
